Time;durP1;ratioP1;P1;durP2;ratioP2;P2;SDS_P1;SDS_P2;PMS_P1;PMS_P2;Temp;Humidity;BMP_temperature;BMP_pressure;BME280_temperature;BME280_humidity;BME280_pressure;Samples;Min_cycle;Max_cycle;Signal;HPM_P1;HPM_P2
2023/07/15 00:00:50;;;;;;;6.18;3.30;;;20.40;99.90;;;;;;5071749;28;20103;-50
2023/07/15 00:03:18;;;;;;;6.40;3.70;;;20.50;99.90;;;;;;5071493;28;20043;-51
2023/07/15 00:05:45;;;;;;;8.40;3.83;;;20.50;99.90;;;;;;5071360;28;20094;-49
2023/07/15 00:08:11;;;;;;;8.48;3.45;;;20.50;99.90;;;;;;5071751;28;20071;-47
2023/07/15 00:10:40;;;;;;;6.80;3.22;;;20.50;99.90;;;;;;5071241;28;20036;-52
2023/07/15 00:13:11;;;;;;;6.22;3.38;;;20.50;99.90;;;;;;5070971;28;20068;-51
2023/07/15 00:15:37;;;;;;;5.40;3.00;;;20.40;99.90;;;;;;5070578;28;20127;-49
2023/07/15 00:18:03;;;;;;;6.05;3.05;;;20.40;99.90;;;;;;5071144;28;20127;-52
2023/07/15 00:20:29;;;;;;;5.93;3.00;;;20.50;99.90;;;;;;5071221;28;20041;-51
2023/07/15 00:22:54;;;;;;;7.93;3.65;;;20.50;99.90;;;;;;5071370;28;20028;-51
2023/07/15 00:25:20;;;;;;;6.25;3.03;;;20.50;99.90;;;;;;5070764;28;20032;-51
2023/07/15 00:27:47;;;;;;;6.22;2.97;;;20.50;99.90;;;;;;5070071;28;20040;-46
2023/07/15 00:30:15;;;;;;;5.53;2.90;;;20.50;99.90;;;;;;5071138;28;20044;-49
2023/07/15 00:32:42;;;;;;;6.85;3.30;;;20.50;99.90;;;;;;5070973;28;20119;-51
2023/07/15 00:35:22;;;;;;;4.97;2.60;;;20.60;99.90;;;;;;5070831;28;20047;-51
2023/07/15 00:37:48;;;;;;;6.30;3.05;;;20.60;99.90;;;;;;5070727;28;20040;-49
2023/07/15 00:40:15;;;;;;;7.43;3.28;;;20.60;99.90;;;;;;5071161;28;20044;-48
2023/07/15 00:42:41;;;;;;;6.85;2.92;;;20.60;99.90;;;;;;5070321;28;20052;-48
2023/07/15 00:45:06;;;;;;;8.20;2.78;;;20.60;99.90;;;;;;5071232;28;20044;-50
2023/07/15 00:48:02;;;;;;;6.55;2.75;;;20.60;99.90;;;;;;5069384;28;20131;-51
2023/07/15 00:50:28;;;;;;;9.05;3.20;;;20.60;99.90;;;;;;5069883;28;20090;-51
2023/07/15 00:52:53;;;;;;;5.20;2.65;;;20.60;99.90;;;;;;5071059;28;20036;-48
2023/07/15 00:55:19;;;;;;;10.35;3.13;;;20.60;99.90;;;;;;5070513;28;20044;-47
2023/07/15 00:57:45;;;;;;;9.02;2.95;;;20.70;99.90;;;;;;5069262;28;20373;-49
2023/07/15 01:00:11;;;;;;;5.50;2.72;;;20.60;99.90;;;;;;5070697;28;20084;-47
2023/07/15 01:02:37;;;;;;;6.93;2.83;;;20.60;99.90;;;;;;5070740;28;20111;-50
2023/07/15 01:05:06;;;;;;;5.00;2.75;;;20.70;99.90;;;;;;5069401;28;20074;-50
2023/07/15 01:07:32;;;;;;;6.30;2.35;;;20.70;99.90;;;;;;5070735;28;20040;-49
2023/07/15 01:09:57;;;;;;;5.50;2.80;;;20.70;99.90;;;;;;5070917;28;20372;-54
2023/07/15 01:12:23;;;;;;;7.82;2.63;;;20.70;99.90;;;;;;5070453;28;20040;-50
2023/07/15 01:14:49;;;;;;;6.72;2.63;;;20.70;99.90;;;;;;5070006;28;20049;-53
2023/07/15 01:17:15;;;;;;;5.32;2.50;;;20.70;99.90;;;;;;5070426;28;20040;-51
2023/07/15 01:19:41;;;;;;;4.82;2.40;;;20.80;99.90;;;;;;5070819;28;20036;-50
2023/07/15 01:22:07;;;;;;;8.85;2.72;;;20.80;99.90;;;;;;5070085;28;20483;-51
2023/07/15 01:24:34;;;;;;;6.55;2.55;;;20.80;99.90;;;;;;5070399;28;20368;-48
2023/07/15 01:27:05;;;;;;;5.63;2.30;;;20.80;99.90;;;;;;5073914;28;20044;-51
2023/07/15 01:29:31;;;;;;;5.47;2.50;;;20.90;99.90;;;;;;5074931;28;20430;-47
2023/07/15 01:31:57;;;;;;;6.03;2.40;;;20.90;99.90;;;;;;5073158;28;20048;-48
2023/07/15 01:34:22;;;;;;;8.30;2.80;;;20.90;99.90;;;;;;5072927;28;20043;-49
2023/07/15 01:36:48;;;;;;;5.30;2.60;;;20.90;99.90;;;;;;5056210;28;20047;-48
2023/07/15 01:39:15;;;;;;;6.13;2.40;;;20.90;99.90;;;;;;5074425;28;20035;-47
2023/07/15 01:41:42;;;;;;;6.72;2.35;;;20.90;99.90;;;;;;5073889;28;20059;-50
2023/07/15 01:44:07;;;;;;;4.13;2.25;;;20.80;99.90;;;;;;5073883;28;20477;-49
2023/07/15 01:46:39;;;;;;;8.40;2.50;;;20.90;99.90;;;;;;5074360;28;20127;-49
2023/07/15 01:49:07;;;;;;;5.22;2.40;;;20.90;99.90;;;;;;5074057;28;20043;-50
2023/07/15 01:51:33;;;;;;;6.40;2.40;;;20.90;99.90;;;;;;5074160;28;20548;-46
2023/07/15 01:53:59;;;;;;;7.10;2.35;;;20.90;99.90;;;;;;5073537;28;20083;-50
2023/07/15 01:56:25;;;;;;;6.03;2.13;;;20.90;99.90;;;;;;5073535;28;20067;-51
2023/07/15 01:58:51;;;;;;;5.88;2.20;;;21.00;99.90;;;;;;5074140;28;20043;-49
2023/07/15 02:01:16;;;;;;;10.15;2.35;;;21.00;99.90;;;;;;5072371;28;20054;-47
2023/07/15 02:03:42;;;;;;;5.75;2.42;;;21.10;99.90;;;;;;5073947;28;20077;-51
2023/07/15 02:06:07;;;;;;;5.88;2.03;;;21.10;99.90;;;;;;5073716;28;20036;-49
2023/07/15 02:08:33;;;;;;;6.20;2.33;;;21.20;99.90;;;;;;5073714;28;20051;-51
2023/07/15 02:10:59;;;;;;;4.65;2.00;;;21.20;99.90;;;;;;5073688;28;20067;-52
2023/07/15 02:13:25;;;;;;;5.93;2.20;;;21.20;99.90;;;;;;5073494;28;20044;-50
2023/07/15 02:15:51;;;;;;;6.20;2.25;;;21.10;99.90;;;;;;5071621;28;20150;-48
2023/07/15 02:18:17;;;;;;;5.75;2.45;;;21.10;99.90;;;;;;5073489;28;20078;-49
2023/07/15 02:20:42;;;;;;;7.18;2.40;;;21.10;99.90;;;;;;5072722;28;20054;-51
2023/07/15 02:23:11;;;;;;;6.90;2.75;;;21.00;99.90;;;;;;5071921;28;20039;-48
2023/07/15 02:25:37;;;;;;;5.35;2.50;;;21.00;99.90;;;;;;5073699;28;20376;-47
2023/07/15 02:28:02;;;;;;;4.57;2.10;;;20.90;99.90;;;;;;5072952;28;20047;-49
2023/07/15 02:30:28;;;;;;;7.32;2.60;;;20.80;99.90;;;;;;5072383;28;20119;-50
2023/07/15 02:32:54;;;;;;;4.80;2.30;;;20.80;99.90;;;;;;5073298;28;20472;-50
2023/07/15 02:35:20;;;;;;;6.00;2.20;;;20.80;99.90;;;;;;5073261;28;20045;-48
2023/07/15 02:37:48;;;;;;;7.60;2.38;;;20.70;99.90;;;;;;5072316;28;20040;-48
2023/07/15 02:40:15;;;;;;;6.60;2.30;;;20.70;99.90;;;;;;5073382;28;20045;-51
2023/07/15 02:42:40;;;;;;;4.65;2.13;;;20.70;99.90;;;;;;5072952;28;20052;-50
2023/07/15 02:45:11;;;;;;;5.95;2.50;;;20.60;99.90;;;;;;5071659;28;20539;-49
2023/07/15 02:47:39;;;;;;;8.10;2.55;;;20.60;99.90;;;;;;5073218;28;20048;-48
2023/07/15 02:50:09;;;;;;;4.60;2.50;;;20.60;99.90;;;;;;5072886;28;20085;-49
2023/07/15 02:52:36;;;;;;;6.15;2.60;;;20.50;99.90;;;;;;5071214;28;20123;-49
2023/07/15 02:55:03;;;;;;;6.82;2.50;;;20.40;99.90;;;;;;5071524;28;20044;-49
2023/07/15 02:57:29;;;;;;;5.13;2.10;;;20.40;99.90;;;;;;5072209;28;20387;-49
2023/07/15 02:59:55;;;;;;;7.90;2.67;;;20.40;99.90;;;;;;5072848;28;20040;-49
2023/07/15 03:02:22;;;;;;;6.03;2.38;;;20.30;99.90;;;;;;5072848;28;20078;-49
2023/07/15 03:04:49;;;;;;;7.68;2.35;;;20.20;99.90;;;;;;5072975;28;20437;-51
2023/07/15 03:07:15;;;;;;;9.05;2.47;;;20.20;99.90;;;;;;5072120;28;20136;-46
2023/07/15 03:09:41;;;;;;;7.35;2.30;;;20.20;99.90;;;;;;5072931;28;20127;-50
2023/07/15 03:12:08;;;;;;;5.63;2.35;;;20.10;99.90;;;;;;5072610;28;20449;-52
2023/07/15 03:14:34;;;;;;;7.07;2.58;;;20.10;99.90;;;;;;5072786;28;20036;-49
2023/07/15 03:17:00;;;;;;;8.85;2.60;;;20.00;99.90;;;;;;5072121;28;20480;-49
2023/07/15 03:19:26;;;;;;;5.22;2.83;;;19.90;99.90;;;;;;5072363;28;20036;-53
2023/07/15 03:21:52;;;;;;;6.28;2.42;;;19.90;99.90;;;;;;5072150;28;20384;-49
2023/07/15 03:24:18;;;;;;;7.43;2.55;;;19.90;99.90;;;;;;5070463;28;20074;-49
2023/07/15 03:26:44;;;;;;;6.60;2.72;;;19.80;99.90;;;;;;5072147;28;20045;-48
2023/07/15 03:29:10;;;;;;;5.63;2.70;;;19.80;99.90;;;;;;5071203;28;20130;-46
2023/07/15 03:31:36;;;;;;;6.55;2.60;;;19.70;99.90;;;;;;5071544;28;20068;-51
2023/07/15 03:34:02;;;;;;;4.38;2.10;;;19.60;99.90;;;;;;5071973;28;20044;-50
2023/07/15 03:36:28;;;;;;;7.32;2.60;;;19.70;99.90;;;;;;5069966;28;20036;-50
2023/07/15 03:38:53;;;;;;;5.38;2.60;;;19.60;99.90;;;;;;5072072;28;20058;-52
2023/07/15 03:41:19;;;;;;;5.40;2.40;;;19.60;99.90;;;;;;5070191;28;20054;-49
2023/07/15 03:43:45;;;;;;;5.25;2.50;;;19.50;99.90;;;;;;5070814;28;20636;-47
2023/07/15 03:46:12;;;;;;;5.20;2.38;;;19.50;99.90;;;;;;5071806;28;20041;-53
2023/07/15 03:48:39;;;;;;;6.68;2.22;;;19.50;99.90;;;;;;5070538;28;20373;-48
2023/07/15 03:51:06;;;;;;;6.70;2.72;;;19.40;99.90;;;;;;5071688;28;20487;-48
2023/07/15 03:53:32;;;;;;;7.97;2.47;;;19.40;99.90;;;;;;5071212;28;20119;-50
2023/07/15 03:55:58;;;;;;;6.18;2.55;;;19.40;99.90;;;;;;5070541;28;20112;-50
2023/07/15 03:58:23;;;;;;;4.38;2.40;;;19.40;99.90;;;;;;5071378;28;20032;-51
2023/07/15 04:00:49;;;;;;;5.28;2.45;;;19.40;99.90;;;;;;5071157;28;20066;-52
2023/07/15 04:03:15;;;;;;;7.03;2.70;;;19.40;99.90;;;;;;5071516;28;20033;-50
2023/07/15 04:05:41;;;;;;;6.15;2.78;;;19.40;99.90;;;;;;5070198;28;20396;-49
2023/07/15 04:08:06;;;;;;;5.90;2.75;;;19.40;99.90;;;;;;5071462;28;20049;-48
2023/07/15 04:10:32;;;;;;;5.75;2.38;;;19.40;99.90;;;;;;5071315;28;20041;-48
2023/07/15 04:12:58;;;;;;;8.90;3.00;;;19.40;99.90;;;;;;5070866;28;20033;-49
2023/07/15 04:15:23;;;;;;;5.82;2.33;;;19.30;99.90;;;;;;5071617;28;20028;-48
2023/07/15 04:17:49;;;;;;;8.15;2.83;;;19.30;99.90;;;;;;5071212;28;20040;-48
2023/07/15 04:20:17;;;;;;;6.40;2.65;;;19.30;99.90;;;;;;5071244;28;20094;-49
2023/07/15 04:22:43;;;;;;;6.78;3.28;;;19.30;99.90;;;;;;5071384;28;20475;-49
2023/07/15 04:25:12;;;;;;;8.05;2.92;;;19.30;99.90;;;;;;5071124;28;20036;-51
2023/07/15 04:27:39;;;;;;;7.45;3.03;;;19.30;99.90;;;;;;5069656;28;20036;-50
2023/07/15 04:30:05;;;;;;;6.50;2.95;;;19.20;99.90;;;;;;5071338;28;20047;-47
2023/07/15 04:32:31;;;;;;;5.93;2.60;;;19.20;99.90;;;;;;5071319;28;20044;-51
2023/07/15 04:34:57;;;;;;;9.30;2.90;;;19.20;99.90;;;;;;5071066;28;20498;-50
2023/07/15 04:37:24;;;;;;;8.85;2.70;;;19.20;99.90;;;;;;5070890;28;20127;-47
2023/07/15 04:39:50;;;;;;;5.78;2.92;;;19.20;99.90;;;;;;5069188;28;20090;-51
2023/07/15 04:42:16;;;;;;;8.23;2.67;;;19.20;99.90;;;;;;5070379;28;20061;-47
2023/07/15 04:44:41;;;;;;;5.72;2.60;;;19.20;99.90;;;;;;5070822;28;20391;-49
2023/07/15 04:47:07;;;;;;;6.25;2.50;;;19.30;99.90;;;;;;5070878;28;20059;-50
2023/07/15 04:49:33;;;;;;;6.43;2.50;;;19.30;99.90;;;;;;5070984;28;20086;-51
2023/07/15 04:51:58;;;;;;;5.13;2.53;;;19.30;99.90;;;;;;5070984;28;20115;-50
2023/07/15 04:54:24;;;;;;;5.32;2.70;;;19.30;99.90;;;;;;5070623;28;20040;-46
2023/07/15 04:56:50;;;;;;;6.97;3.03;;;19.40;99.90;;;;;;5070940;28;20504;-48
2023/07/15 04:59:15;;;;;;;5.43;2.60;;;19.40;99.90;;;;;;5069456;28;20036;-49
2023/07/15 05:01:41;;;;;;;6.43;2.65;;;19.40;99.90;;;;;;5070332;28;20040;-51
2023/07/15 05:04:07;;;;;;;6.35;2.33;;;19.40;99.90;;;;;;5070739;28;20047;-47
2023/07/15 05:06:33;;;;;;;6.05;2.65;;;19.50;99.90;;;;;;5070497;28;20028;-50
2023/07/15 05:09:00;;;;;;;8.68;2.97;;;19.50;99.90;;;;;;5070651;28;20404;-49
2023/07/15 05:11:26;;;;;;;8.57;2.90;;;19.60;99.90;;;;;;5085989;28;20048;-51
2023/07/15 05:13:52;;;;;;;7.28;2.65;;;19.60;99.90;;;;;;5071042;28;20530;-48
2023/07/15 05:16:18;;;;;;;6.60;2.50;;;19.60;99.90;;;;;;5070627;28;20072;-48
2023/07/15 05:18:44;;;;;;;6.78;2.60;;;19.70;99.90;;;;;;5070626;28;20145;-52
2023/07/15 05:21:09;;;;;;;6.35;2.90;;;19.70;99.90;;;;;;5069375;28;20174;-51
2023/07/15 05:23:35;;;;;;;6.22;2.80;;;19.80;99.90;;;;;;5070412;28;20029;-48
2023/07/15 05:26:01;;;;;;;9.05;2.97;;;19.80;99.90;;;;;;5068990;28;20036;-50
2023/07/15 05:28:30;;;;;;;8.07;2.70;;;19.80;99.90;;;;;;5070700;28;20040;-50
2023/07/15 05:31:03;;;;;;;6.40;2.90;;;19.90;99.90;;;;;;5068889;28;20037;-47
2023/07/15 05:33:30;;;;;;;8.63;3.17;;;19.90;99.90;;;;;;5070350;28;20036;-48
2023/07/15 05:35:56;;;;;;;11.07;3.63;;;20.00;99.90;;;;;;5070402;28;20048;-51
2023/07/15 05:38:25;;;;;;;5.38;2.85;;;20.00;99.90;;;;;;5070596;28;20476;-50
2023/07/15 05:40:52;;;;;;;7.25;2.83;;;20.10;99.90;;;;;;5070484;28;20063;-50
2023/07/15 05:43:19;;;;;;;5.25;2.60;;;20.10;99.90;;;;;;5068638;28;20060;-51
2023/07/15 05:45:45;;;;;;;6.50;2.90;;;20.20;99.90;;;;;;5070044;28;20044;-48
2023/07/15 05:48:11;;;;;;;5.57;2.67;;;20.20;99.90;;;;;;5069749;28;20052;-48
2023/07/15 05:50:37;;;;;;;6.65;2.85;;;20.30;99.90;;;;;;5069870;28;20045;-49
2023/07/15 05:53:04;;;;;;;6.57;2.45;;;20.30;99.90;;;;;;5069020;28;20040;-48
2023/07/15 05:55:34;;;;;;;6.53;2.80;;;20.40;99.90;;;;;;5069748;28;20076;-49
2023/07/15 05:58:01;;;;;;;7.07;2.85;;;20.40;99.90;;;;;;5070169;28;20086;-50
2023/07/15 06:00:30;;;;;;;7.63;3.20;;;20.50;99.90;;;;;;5070286;28;20067;-50
2023/07/15 06:02:55;;;;;;;5.57;2.92;;;20.60;99.90;;;;;;5070021;28;20037;-50
2023/07/15 06:05:21;;;;;;;8.32;2.90;;;20.60;99.90;;;;;;5070342;28;20035;-47
2023/07/15 06:07:48;;;;;;;7.43;3.15;;;20.60;99.90;;;;;;5069953;28;20049;-51
2023/07/15 06:10:14;;;;;;;6.35;2.90;;;20.70;99.90;;;;;;5070419;28;20530;-47
2023/07/15 06:12:41;;;;;;;6.65;2.70;;;20.70;99.90;;;;;;5071379;28;20040;-51
2023/07/15 06:15:07;;;;;;;7.38;2.92;;;20.80;99.90;;;;;;5072419;28;20048;-48
2023/07/15 06:17:33;;;;;;;4.88;2.63;;;20.80;99.90;;;;;;5073499;28;20040;-48
2023/07/15 06:19:59;;;;;;;6.65;3.03;;;20.80;99.90;;;;;;5072612;28;20043;-48
2023/07/15 06:22:24;;;;;;;6.20;2.90;;;20.90;99.90;;;;;;5073667;28;20115;-49
2023/07/15 06:24:50;;;;;;;6.60;3.17;;;20.90;99.90;;;;;;5072989;28;20036;-50
2023/07/15 06:27:16;;;;;;;8.98;3.10;;;20.90;99.90;;;;;;5073255;28;20127;-49
2023/07/15 06:29:42;;;;;;;7.07;3.10;;;20.90;99.90;;;;;;5071931;28;20102;-50
2023/07/15 06:32:08;;;;;;;6.55;3.47;;;20.90;99.90;;;;;;5073221;28;20040;-48
2023/07/15 06:34:34;;;;;;;4.93;2.75;;;20.90;99.90;;;;;;5073112;28;20040;-50
2023/07/15 06:36:59;;;;;;;6.30;2.90;;;21.00;99.90;;;;;;5073621;28;20036;-48
2023/07/15 06:39:25;;;;;;;7.32;3.22;;;21.00;99.90;;;;;;5073379;28;20036;-50
2023/07/15 06:41:51;;;;;;;6.30;3.00;;;21.10;99.90;;;;;;5071367;28;20048;-51
2023/07/15 06:44:17;;;;;;;6.95;3.10;;;21.10;99.90;;;;;;5073382;28;20059;-47
2023/07/15 06:46:43;;;;;;;8.32;3.30;;;21.10;99.90;;;;;;5066550;28;20450;-48
2023/07/15 06:49:08;;;;;;;6.05;3.03;;;21.20;99.90;;;;;;5070748;28;20040;-47
2023/07/15 06:51:34;;;;;;;6.32;3.00;;;21.20;99.90;;;;;;5071919;28;20029;-51
2023/07/15 06:54:00;;;;;;;7.80;3.40;;;21.30;99.90;;;;;;5070802;28;20395;-50
2023/07/15 06:56:26;;;;;;;8.23;3.35;;;21.40;99.90;;;;;;5066977;28;20031;-48
2023/07/15 06:58:51;;;;;;;6.00;2.88;;;21.40;99.90;;;;;;5067269;28;20067;-50
2023/07/15 07:01:17;;;;;;;8.18;3.13;;;21.50;99.90;;;;;;5069404;28;20040;-48
2023/07/15 07:03:44;;;;;;;6.50;3.20;;;21.60;99.90;;;;;;5069077;28;20028;-48
2023/07/15 07:06:10;;;;;;;6.07;2.88;;;21.60;99.90;;;;;;5071891;28;20052;-47
2023/07/15 07:08:36;;;;;;;5.47;3.25;;;21.60;99.90;;;;;;5071568;28;20484;-49
2023/07/15 07:11:02;;;;;;;5.90;2.80;;;21.70;99.90;;;;;;5072160;28;20036;-47
2023/07/15 07:13:28;;;;;;;5.82;2.53;;;21.80;99.90;;;;;;5069392;28;20127;-48
2023/07/15 07:15:58;;;;;;;5.72;2.60;;;21.90;99.90;;;;;;5071644;28;20178;-48
2023/07/15 07:18:27;;;;;;;6.70;2.97;;;22.00;99.90;;;;;;5072003;28;20121;-48
2023/07/15 07:20:59;;;;;;;7.53;2.78;;;22.00;99.90;;;;;;5071956;28;20037;-47
2023/07/15 07:23:26;;;;;;;4.60;2.40;;;22.20;99.90;;;;;;5071817;28;20040;-49
2023/07/15 07:25:52;;;;;;;6.43;2.60;;;22.20;99.90;;;;;;5054820;28;20040;-49
2023/07/15 07:28:23;;;;;;;6.53;2.88;;;22.40;99.90;;;;;;5071314;28;20229;-46
2023/07/15 07:30:50;;;;;;;6.82;3.10;;;22.50;99.90;;;;;;5065077;28;20051;-49
2023/07/15 07:33:16;;;;;;;7.38;2.80;;;22.70;99.90;;;;;;5070298;28;20717;-50
2023/07/15 07:35:47;;;;;;;8.27;3.70;;;22.80;99.90;;;;;;5070389;28;20131;-47
2023/07/15 07:38:13;;;;;;;6.43;2.50;;;22.90;99.90;;;;;;5070156;28;20118;-48
2023/07/15 07:40:39;;;;;;;5.78;2.58;;;22.90;99.90;;;;;;5070021;28;20048;-46
2023/07/15 07:43:05;;;;;;;4.85;2.60;;;22.90;99.90;;;;;;5068534;28;20504;-50
2023/07/15 07:45:30;;;;;;;6.45;2.42;;;22.90;99.90;;;;;;5071230;28;20044;-46
2023/07/15 07:47:56;;;;;;;5.82;2.30;;;22.90;99.90;;;;;;5070407;28;20693;-47
2023/07/15 07:50:22;;;;;;;5.43;2.58;;;22.90;99.90;;;;;;5067815;28;20145;-47
2023/07/15 07:52:47;;;;;;;8.13;2.83;;;23.10;99.90;;;;;;5067569;28;20040;-49
2023/07/15 07:55:13;;;;;;;7.28;2.75;;;23.20;99.90;;;;;;5068541;28;20066;-50
2023/07/15 07:57:39;;;;;;;5.82;2.80;;;23.20;99.90;;;;;;5064426;28;20486;-49
2023/07/15 08:00:05;;;;;;;5.85;2.50;;;23.30;99.90;;;;;;5064873;28;20044;-48
2023/07/15 08:02:31;;;;;;;5.85;2.40;;;23.30;99.90;;;;;;5070281;28;20047;-48
2023/07/15 08:04:57;;;;;;;6.53;2.50;;;23.40;99.90;;;;;;5070288;28;20461;-49
2023/07/15 08:07:22;;;;;;;4.95;2.70;;;23.60;99.90;;;;;;5069788;28;20040;-46
2023/07/15 08:09:48;;;;;;;5.28;2.38;;;23.70;99.90;;;;;;5069715;28;20036;-47
2023/07/15 08:12:15;;;;;;;6.57;2.42;;;23.70;99.90;;;;;;5070116;28;20040;-49
2023/07/15 08:14:41;;;;;;;6.28;2.45;;;23.70;99.90;;;;;;5069173;28;20048;-48
2023/07/15 08:17:07;;;;;;;6.53;2.08;;;23.60;99.90;;;;;;5070146;28;20484;-48
2023/07/15 08:19:32;;;;;;;5.07;1.63;;;23.60;99.90;;;;;;5068677;28;20044;-48
2023/07/15 08:21:58;;;;;;;4.30;1.27;;;23.60;99.90;;;;;;5069900;28;20098;-48
2023/07/15 08:24:23;;;;;;;5.65;1.40;;;23.60;99.90;;;;;;5069930;28;20038;-47
2023/07/15 08:26:49;;;;;;;4.65;1.45;;;23.50;99.90;;;;;;5069782;28;20039;-49
2023/07/15 08:29:15;;;;;;;4.72;1.65;;;23.60;99.90;;;;;;5070264;28;20033;-48
2023/07/15 08:31:41;;;;;;;3.72;1.48;;;23.70;99.90;;;;;;5068467;28;20042;-50
2023/07/15 08:34:06;;;;;;;3.22;1.58;;;23.90;99.90;;;;;;5070061;28;20041;-48
2023/07/15 08:36:32;;;;;;;8.18;2.28;;;23.90;99.90;;;;;;5069160;28;20040;-50
2023/07/15 08:38:58;;;;;;;4.25;1.70;;;24.00;99.90;;;;;;5069922;28;20482;-51
2023/07/15 08:41:24;;;;;;;5.68;1.90;;;24.00;99.90;;;;;;5069497;28;20045;-49
2023/07/15 08:43:50;;;;;;;3.55;1.80;;;23.90;99.90;;;;;;5068167;28;20028;-49
2023/07/15 08:46:29;;;;;;;4.30;2.00;;;23.90;99.90;;;;;;5085051;28;20032;-51
2023/07/15 08:48:56;;;;;;;4.50;1.98;;;23.90;99.90;;;;;;5069769;28;20048;-51
2023/07/15 08:51:25;;;;;;;5.30;1.88;;;23.80;99.90;;;;;;5069565;28;20036;-50
2023/07/15 08:53:52;;;;;;;5.60;2.33;;;23.80;99.90;;;;;;5069251;28;20051;-48
2023/07/15 08:56:20;;;;;;;4.20;2.22;;;23.80;99.90;;;;;;5069690;28;20048;-45
2023/07/15 08:58:47;;;;;;;6.45;2.40;;;23.80;99.90;;;;;;5068819;28;20120;-47
2023/07/15 09:01:13;;;;;;;5.25;2.40;;;23.90;99.90;;;;;;5067940;28;20079;-45
2023/07/15 09:03:38;;;;;;;5.63;2.63;;;23.80;99.90;;;;;;5069331;28;20064;-47
2023/07/15 09:06:04;;;;;;;6.32;2.42;;;24.00;99.90;;;;;;5069385;28;20044;-49
2023/07/15 09:08:30;;;;;;;6.55;2.60;;;24.00;99.90;;;;;;5069239;28;20119;-50
2023/07/15 09:10:58;;;;;;;5.63;2.47;;;24.10;99.90;;;;;;5069308;28;20036;-51
2023/07/15 09:13:28;;;;;;;5.57;2.70;;;24.10;99.90;;;;;;5069068;28;20036;-47
2023/07/15 09:15:55;;;;;;;6.22;2.40;;;24.20;99.90;;;;;;5067809;28;20068;-49
2023/07/15 09:18:22;;;;;;;5.65;2.63;;;24.40;99.90;;;;;;5068611;28;20086;-52
2023/07/15 09:20:48;;;;;;;4.93;2.55;;;24.40;99.90;;;;;;5069224;28;20051;-53
2023/07/15 09:23:15;;;;;;;5.88;2.90;;;24.40;99.90;;;;;;5063175;28;20051;-51
2023/07/15 09:25:53;;;;;;;6.53;2.95;;;24.60;99.90;;;;;;5069325;28;20119;-49
2023/07/15 09:28:20;;;;;;;6.63;2.40;;;24.90;99.90;;;;;;5067984;28;20041;-51
2023/07/15 09:30:45;;;;;;;5.35;2.40;;;24.90;99.90;;;;;;5068423;28;20040;-52
2023/07/15 09:33:38;;;;;;;4.53;2.28;;;25.00;99.90;;;;;;5068802;28;20029;-49
2023/07/15 09:36:04;;;;;;;5.25;2.50;;;25.10;99.90;;;;;;5063456;28;20056;-48
2023/07/15 09:38:34;;;;;;;3.72;2.17;;;25.30;99.90;;;;;;5069038;28;20041;-49
2023/07/15 09:41:02;;;;;;;5.20;2.60;;;25.50;99.90;;;;;;5067028;28;20518;-51
2023/07/15 09:43:47;;;;;;;5.72;2.25;;;25.60;99.90;;;;;;5068945;28;20487;-45
2023/07/15 09:46:15;;;;;;;4.05;2.15;;;25.80;99.90;;;;;;5067773;28;20040;-49
2023/07/15 09:48:41;;;;;;;5.10;2.35;;;25.90;99.90;;;;;;5072675;28;20607;-46
2023/07/15 09:51:12;;;;;;;4.93;1.60;;;26.10;99.90;;;;;;5071601;28;20395;-45
2023/07/15 09:53:52;;;;;;;3.63;1.42;;;26.10;99.90;;;;;;5070665;28;20128;-45
2023/07/15 09:56:21;;;;;;;4.97;1.52;;;26.00;99.90;;;;;;5069475;28;20041;-47
2023/07/15 09:58:50;;;;;;;4.50;1.38;;;25.80;99.90;;;;;;5070748;28;20040;-46
2023/07/15 10:01:41;;;;;;;2.75;1.13;;;25.90;99.90;;;;;;5071977;28;20044;-48
2023/07/15 10:04:33;;;;;;;3.35;1.10;;;25.90;99.90;;;;;;5071565;28;20039;-47
2023/07/15 10:07:01;;;;;;;2.75;1.30;;;26.10;99.90;;;;;;5071110;28;20044;-49
2023/07/15 10:09:28;;;;;;;3.70;1.20;;;26.30;99.90;;;;;;5071999;28;20507;-50
2023/07/15 10:11:55;;;;;;;3.38;1.10;;;26.40;99.90;;;;;;5071631;28;20040;-48
2023/07/15 10:14:22;;;;;;;3.15;1.00;;;26.30;99.90;;;;;;5072114;28;20120;-48
2023/07/15 10:17:06;;;;;;;3.22;0.90;;;26.30;99.90;;;;;;5071986;28;20075;-48
2023/07/15 10:19:47;;;;;;;3.85;1.10;;;26.30;99.90;;;;;;5071726;28;20067;-50
2023/07/15 10:22:13;;;;;;;5.97;1.30;;;26.30;99.90;;;;;;5072442;28;20048;-49
2023/07/15 10:24:43;;;;;;;2.90;1.00;;;26.30;99.90;;;;;;5072520;28;20174;-49
2023/07/15 10:27:11;;;;;;;5.50;1.30;;;26.40;99.90;;;;;;5083852;28;20538;-49
2023/07/15 10:29:38;;;;;;;3.58;0.90;;;26.30;99.90;;;;;;5071992;28;20372;-48
2023/07/15 10:32:12;;;;;;;3.40;1.27;;;26.20;99.90;;;;;;5072339;28;20574;-49
2023/07/15 10:34:56;;;;;;;4.05;1.10;;;26.20;99.90;;;;;;5070547;28;20420;-46
2023/07/15 10:37:21;;;;;;;3.25;1.20;;;26.10;99.90;;;;;;5071300;28;20033;-48
2023/07/15 10:39:47;;;;;;;4.82;1.00;;;26.20;99.90;;;;;;5071793;28;20041;-48
2023/07/15 10:42:17;;;;;;;7.47;1.13;;;26.20;99.90;;;;;;5071187;28;20052;-46
2023/07/15 10:44:45;;;;;;;3.78;1.05;;;26.30;99.90;;;;;;5071678;28;20045;-46
2023/07/15 10:47:15;;;;;;;2.58;0.77;;;26.20;99.90;;;;;;5069449;28;20051;-48
2023/07/15 10:49:44;;;;;;;4.47;1.08;;;26.20;99.90;;;;;;5071807;28;20421;-49
2023/07/15 10:52:10;;;;;;;2.67;1.08;;;26.20;99.90;;;;;;5071541;28;20059;-47
2023/07/15 10:54:39;;;;;;;2.33;1.02;;;26.20;99.90;;;;;;5070800;28;20071;-50
2023/07/15 10:57:16;;;;;;;2.85;1.05;;;26.10;99.90;;;;;;5071491;28;20045;-50
2023/07/15 10:59:45;;;;;;;2.45;0.90;;;26.00;99.90;;;;;;5070999;28;20073;-48
2023/07/15 11:02:12;;;;;;;2.80;1.20;;;25.90;99.90;;;;;;5069182;28;20041;-49
2023/07/15 11:04:40;;;;;;;2.63;1.13;;;25.90;99.90;;;;;;5071729;28;20380;-48
2023/07/15 11:07:10;;;;;;;3.97;1.20;;;25.90;99.90;;;;;;5071529;28;20037;-52
2023/07/15 11:09:40;;;;;;;2.97;1.38;;;25.90;99.90;;;;;;5068246;28;20033;-46
2023/07/15 11:12:07;;;;;;;2.95;1.27;;;26.00;99.90;;;;;;5072717;28;20040;-48
2023/07/15 11:14:33;;;;;;;4.35;1.20;;;26.10;99.90;;;;;;5070654;28;20040;-49
2023/07/15 11:17:01;;;;;;;4.03;1.23;;;26.10;99.90;;;;;;5065258;28;20421;-47
2023/07/15 11:19:29;;;;;;;3.28;1.20;;;26.00;99.90;;;;;;5071085;28;20036;-48
2023/07/15 11:21:56;;;;;;;3.13;1.30;;;26.00;99.90;;;;;;5069398;28;20040;-48
2023/07/15 11:24:23;;;;;;;3.35;1.00;;;25.80;99.90;;;;;;5067154;28;20501;-47
2023/07/15 11:26:49;;;;;;;3.85;1.10;;;25.70;99.90;;;;;;5068482;28;20119;-49
2023/07/15 11:29:22;;;;;;;4.78;1.05;;;25.70;99.90;;;;;;5070974;28;20115;-46
2023/07/15 11:31:52;;;;;;;4.05;1.30;;;25.70;99.90;;;;;;5070835;28;20028;-50
2023/07/15 11:34:20;;;;;;;2.80;1.10;;;25.60;99.90;;;;;;5069668;28;20058;-48
2023/07/15 11:36:46;;;;;;;3.80;1.08;;;25.70;99.90;;;;;;5069924;28;20040;-48
2023/07/15 11:39:13;;;;;;;3.47;1.17;;;25.60;99.90;;;;;;5069765;28;20047;-48
2023/07/15 11:41:40;;;;;;;3.13;1.30;;;25.60;99.90;;;;;;5070078;28;20052;-48
2023/07/15 11:44:09;;;;;;;5.55;1.27;;;25.50;99.90;;;;;;5070602;28;20032;-47
2023/07/15 11:46:36;;;;;;;4.45;1.30;;;25.50;99.90;;;;;;5069201;28;20040;-48
2023/07/15 11:49:03;;;;;;;2.78;1.20;;;25.50;99.90;;;;;;5069318;28;20136;-48
2023/07/15 11:51:32;;;;;;;4.60;1.50;;;25.60;99.90;;;;;;5070501;28;20041;-50
2023/07/15 11:53:58;;;;;;;5.22;1.60;;;25.60;99.90;;;;;;5070903;28;20097;-47
2023/07/15 11:56:34;;;;;;;4.25;1.05;;;25.70;99.90;;;;;;5069733;28;20032;-48
2023/07/15 11:59:00;;;;;;;6.95;1.13;;;25.70;99.90;;;;;;5070237;28;20037;-47
2023/07/15 12:01:26;;;;;;;3.30;1.30;;;25.70;99.90;;;;;;5070181;28;20463;-49
2023/07/15 12:03:53;;;;;;;3.95;1.30;;;25.70;99.90;;;;;;5070142;28;20475;-51
2023/07/15 12:06:24;;;;;;;5.28;1.50;;;25.70;99.90;;;;;;5070525;28;20377;-47
2023/07/15 12:09:07;;;;;;;3.92;1.70;;;25.80;99.90;;;;;;5070084;28;20047;-49
2023/07/15 12:11:34;;;;;;;4.00;1.48;;;25.90;99.90;;;;;;5069990;28;20388;-50
2023/07/15 12:14:01;;;;;;;5.18;1.40;;;26.00;99.90;;;;;;5068822;28;20438;-50
2023/07/15 12:16:28;;;;;;;3.65;1.40;;;26.20;99.90;;;;;;5069041;28;20033;-51
2023/07/15 12:18:54;;;;;;;3.17;1.20;;;26.50;99.90;;;;;;5068217;28;20043;-51
2023/07/15 12:21:20;;;;;;;4.88;1.58;;;26.70;99.90;;;;;;5070167;28;20151;-50
2023/07/15 12:23:46;;;;;;;3.05;1.50;;;26.80;99.90;;;;;;5052405;28;20091;-47
2023/07/15 12:26:12;;;;;;;3.67;1.40;;;27.00;99.90;;;;;;5069237;28;20076;-49
2023/07/15 12:28:38;;;;;;;6.78;1.50;;;27.20;99.90;;;;;;5070623;28;20044;-50
2023/07/15 12:31:04;;;;;;;5.32;1.50;;;27.30;99.90;;;;;;5070032;28;20111;-51
2023/07/15 12:33:29;;;;;;;4.72;1.50;;;27.50;99.90;;;;;;5069786;28;20475;-52
2023/07/15 12:35:55;;;;;;;4.25;1.70;;;27.50;99.90;;;;;;5069502;28;20046;-47
2023/07/15 12:38:22;;;;;;;4.78;1.40;;;27.50;99.90;;;;;;5069158;28;20040;-48
2023/07/15 12:40:48;;;;;;;5.03;1.63;;;27.50;99.90;;;;;;5069413;28;20048;-50
2023/07/15 12:43:14;;;;;;;6.50;1.50;;;27.60;99.90;;;;;;5068750;28;20056;-47
2023/07/15 12:45:41;;;;;;;2.75;1.40;;;27.60;99.90;;;;;;5067205;28;20063;-49